Time;durP1;ratioP1;P1;durP2;ratioP2;P2;SDS_P1;SDS_P2;PMS_P1;PMS_P2;Temp;Humidity;BMP_temperature;BMP_pressure;BME280_temperature;BME280_humidity;BME280_pressure;Samples;Min_cycle;Max_cycle;Signal;HPM_P1;HPM_P2
2022/01/07 00:01:49;0.00;0.00;0.62;0.00;0.00;0.62;2.00;1.30;;;21.30;28.20;;;;;;2241548;62;20625;-62
2022/01/07 00:04:35;0.00;0.00;0.62;0.00;0.00;0.62;1.63;1.10;;;21.30;28.20;;;;;;2241363;62;20382;-62
2022/01/07 00:07:20;0.00;0.00;0.62;0.00;0.00;0.62;2.20;1.47;;;21.30;28.20;;;;;;2242003;62;20741;-61
2022/01/07 00:10:07;0.00;0.00;0.62;0.00;0.00;0.62;2.40;1.60;;;21.30;28.20;;;;;;2241391;62;20407;-60
2022/01/07 00:12:52;0.00;0.00;0.62;0.00;0.00;0.62;2.10;1.37;;;21.30;28.20;;;;;;2241263;62;20598;-62
2022/01/07 00:15:38;0.00;0.00;0.62;0.00;0.00;0.62;2.97;1.63;;;21.30;28.10;;;;;;2242024;62;20371;-61
2022/01/07 00:18:23;0.00;0.00;0.62;0.00;0.00;0.62;3.20;1.30;;;21.20;28.00;;;;;;2241348;62;20370;-62
2022/01/07 00:21:07;0.00;0.00;0.62;0.00;0.00;0.62;2.97;1.77;;;21.30;28.10;;;;;;2241675;62;20367;-61
2022/01/07 00:23:52;0.00;0.00;0.62;0.00;0.00;0.62;3.30;1.57;;;21.30;28.10;;;;;;2241284;62;20487;-62
2022/01/07 00:26:37;0.00;0.00;0.62;0.00;0.00;0.62;4.93;1.80;;;21.20;28.00;;;;;;2241604;62;20386;-63
2022/01/07 00:29:21;0.00;0.00;0.62;0.00;0.00;0.62;4.80;2.07;;;21.20;27.90;;;;;;2241636;62;20387;-61
2022/01/07 00:32:08;0.00;0.00;0.62;0.00;0.00;0.62;5.10;2.47;;;21.20;27.80;;;;;;2241391;62;20419;-62
2022/01/07 00:34:52;0.00;0.00;0.62;0.00;0.00;0.62;5.93;1.97;;;21.20;27.40;;;;;;2241201;62;20774;-61
2022/01/07 00:37:37;0.00;0.00;0.62;0.00;0.00;0.62;5.97;2.80;;;21.10;27.40;;;;;;2241933;62;20378;-61
2022/01/07 00:40:23;0.00;0.00;0.62;0.00;0.00;0.62;4.07;2.40;;;21.10;27.40;;;;;;2241090;62;20366;-61
2022/01/07 00:43:07;0.00;0.00;0.62;0.00;0.00;0.62;5.17;2.63;;;21.00;27.10;;;;;;2241552;62;20397;-61
2022/01/07 00:45:52;0.00;0.00;0.62;0.00;0.00;0.62;6.07;3.00;;;21.00;27.00;;;;;;2241504;62;20807;-61
2022/01/07 00:48:38;0.00;0.00;0.62;0.00;0.00;0.62;5.97;3.00;;;21.00;26.90;;;;;;2241186;62;20766;-61
2022/01/07 00:51:22;0.00;0.00;0.62;0.00;0.00;0.62;5.73;2.73;;;20.90;26.80;;;;;;2241546;62;20374;-61
2022/01/07 00:54:07;0.00;0.00;0.62;0.00;0.00;0.62;3.73;2.53;;;20.90;26.80;;;;;;2241008;62;20415;-61
2022/01/07 00:56:51;0.00;0.00;0.62;0.00;0.00;0.62;4.60;3.00;;;20.80;26.50;;;;;;2241158;62;20401;-61
2022/01/07 00:59:36;0.00;0.00;0.62;0.00;0.00;0.62;4.50;2.60;;;20.80;26.30;;;;;;2241868;62;20597;-61
2022/01/07 01:02:21;0.00;0.00;0.62;0.00;0.00;0.62;4.83;2.83;;;20.70;26.00;;;;;;2240636;62;20390;-61
2022/01/07 01:05:09;0.00;0.00;0.62;0.00;0.00;0.62;7.13;3.33;;;20.60;25.90;;;;;;2241574;62;20406;-61
2022/01/07 01:07:54;0.00;0.00;0.62;0.00;0.00;0.62;5.00;3.07;;;20.60;25.90;;;;;;2241556;62;20744;-61
2022/01/07 01:10:39;0.00;0.00;0.62;0.00;0.00;0.62;5.73;3.40;;;20.50;25.70;;;;;;2241309;62;20366;-61
2022/01/07 01:13:24;0.00;0.00;0.62;0.00;0.00;0.62;7.97;3.30;;;20.40;25.60;;;;;;2241757;62;20362;-61
2022/01/07 01:16:09;0.00;0.00;0.62;0.00;0.00;0.62;4.47;3.00;;;20.40;25.60;;;;;;2241249;62;20367;-61
2022/01/07 01:18:53;0.00;0.00;0.62;0.00;0.00;0.62;4.53;2.90;;;20.30;25.70;;;;;;2241072;62;20589;-61
2022/01/07 01:21:39;0.00;0.00;0.62;0.00;0.00;0.62;7.17;3.07;;;20.30;25.70;;;;;;2241715;62;20459;-61
2022/01/07 01:24:24;0.00;0.00;0.62;0.00;0.00;0.62;4.60;3.23;;;20.30;25.70;;;;;;2241078;62;20386;-61
2022/01/07 01:27:08;0.00;0.00;0.62;0.00;0.00;0.62;5.40;2.60;;;20.20;25.70;;;;;;2241577;62;20414;-61
2022/01/07 01:29:53;0.00;0.00;0.62;0.00;0.00;0.62;4.43;2.93;;;20.20;25.70;;;;;;2241801;62;20359;-61
2022/01/07 01:32:38;0.00;0.00;0.62;0.00;0.00;0.62;6.27;2.70;;;20.10;25.70;;;;;;2240980;62;20358;-61
2022/01/07 01:35:23;0.00;0.00;0.62;0.00;0.00;0.62;3.53;2.80;;;20.10;25.70;;;;;;2241731;62;20386;-61
2022/01/07 01:38:09;0.00;0.00;0.62;0.00;0.00;0.62;6.93;2.93;;;20.10;25.80;;;;;;2241074;62;20366;-61
2022/01/07 01:40:54;0.00;0.00;0.62;0.00;0.00;0.62;4.20;2.67;;;20.10;25.90;;;;;;2241139;62;20390;-61
2022/01/07 01:43:38;0.00;0.00;0.62;0.00;0.00;0.62;3.23;2.10;;;20.00;25.90;;;;;;2242343;62;20398;-61
2022/01/07 01:46:24;0.00;0.00;0.62;0.00;0.00;0.62;3.07;2.57;;;20.00;26.00;;;;;;2241728;62;20366;-61
2022/01/07 01:49:08;0.00;0.00;0.62;0.00;0.00;0.62;4.07;2.27;;;20.00;26.00;;;;;;2242028;62;20440;-61
2022/01/07 01:51:53;0.00;0.00;0.62;0.00;0.00;0.62;5.47;2.93;;;20.00;26.00;;;;;;2242439;62;20394;-61
2022/01/07 01:54:40;0.00;0.00;0.62;0.00;0.00;0.62;5.77;2.40;;;20.00;26.10;;;;;;2241808;62;20614;-61
2022/01/07 01:57:25;0.00;0.00;0.62;0.00;0.00;0.62;5.17;2.97;;;20.00;26.10;;;;;;2242066;62;20749;-61
2022/01/07 02:00:11;0.00;0.00;0.62;0.00;0.00;0.62;5.23;2.60;;;20.00;26.00;;;;;;2241711;62;20460;-61
2022/01/07 02:02:59;0.00;0.00;0.62;0.00;0.00;0.62;9.07;3.10;;;20.00;26.10;;;;;;2241481;62;20405;-61
2022/01/07 02:05:45;0.00;0.00;0.62;0.00;0.00;0.62;4.60;3.00;;;20.00;25.90;;;;;;2242345;62;20366;-61
2022/01/07 02:08:30;0.00;0.00;0.62;0.00;0.00;0.62;5.80;3.00;;;20.00;25.80;;;;;;2241742;62;20363;-61
2022/01/07 02:11:16;0.00;0.00;0.62;0.00;0.00;0.62;3.53;2.37;;;19.90;25.60;;;;;;2241864;62;20398;-60
2022/01/07 02:14:00;0.00;0.00;0.62;0.00;0.00;0.62;3.13;2.20;;;19.90;25.50;;;;;;2242374;62;20720;-61
2022/01/07 02:16:45;0.00;0.00;0.62;0.00;0.00;0.62;4.60;2.60;;;19.90;25.60;;;;;;2241553;62;20690;-60
2022/01/07 02:19:31;0.00;0.00;0.62;0.00;0.00;0.62;3.70;2.37;;;19.80;25.60;;;;;;2242011;62;20709;-61
2022/01/07 02:22:19;0.00;0.00;0.62;0.00;0.00;0.62;7.77;2.80;;;19.80;25.70;;;;;;2241463;62;20394;-62
2022/01/07 02:25:05;0.00;0.00;0.62;0.00;0.00;0.62;5.17;2.70;;;19.80;25.60;;;;;;2241743;62;20438;-61
2022/01/07 02:27:50;0.00;0.00;0.62;0.00;0.00;0.62;4.33;2.30;;;19.80;25.50;;;;;;2242326;62;20382;-61
2022/01/07 02:30:35;0.00;0.00;0.62;0.00;0.00;0.62;4.27;2.57;;;19.70;25.50;;;;;;2241729;62;20370;-61
2022/01/07 02:33:19;0.00;0.00;0.62;0.00;0.00;0.62;5.00;2.20;;;19.70;25.50;;;;;;2241411;62;20362;-61
2022/01/07 02:36:10;0.00;0.00;0.62;0.00;0.00;0.62;5.10;2.77;;;19.70;25.50;;;;;;2242316;62;20394;-61
2022/01/07 02:38:54;0.00;0.00;0.62;0.00;0.00;0.62;4.10;2.30;;;19.60;25.30;;;;;;2241332;62;20367;-61
2022/01/07 02:41:39;0.00;0.00;0.62;0.00;0.00;0.62;3.40;2.37;;;19.60;25.20;;;;;;2241941;62;20742;-61
2022/01/07 02:44:23;0.00;0.00;0.62;0.00;0.00;0.62;4.67;2.60;;;19.60;25.10;;;;;;2241149;62;20380;-61
2022/01/07 02:47:08;0.00;0.00;0.62;0.00;0.00;0.62;3.20;2.60;;;19.50;25.00;;;;;;2241598;62;20362;-61
2022/01/07 02:49:52;0.00;0.00;0.62;0.00;0.00;0.62;3.03;2.47;;;19.50;24.90;;;;;;2242354;62;20587;-61
2022/01/07 02:52:38;0.00;0.00;0.62;0.00;0.00;0.62;6.20;3.17;;;19.40;24.80;;;;;;2241413;62;20387;-61
2022/01/07 02:55:26;0.00;0.00;0.62;0.00;0.00;0.62;6.60;2.77;;;19.40;24.80;;;;;;2241537;62;20451;-61
2022/01/07 02:58:11;0.00;0.00;0.62;0.00;0.00;0.62;5.60;2.97;;;19.30;24.70;;;;;;2242225;62;20402;-61
2022/01/07 03:00:56;0.00;0.00;0.62;0.00;0.00;0.62;7.03;2.87;;;19.30;24.80;;;;;;2241104;62;20395;-61
2022/01/07 03:03:42;0.00;0.00;0.62;0.00;0.00;0.62;4.60;2.80;;;19.20;24.80;;;;;;2241820;62;20463;-61
2022/01/07 03:06:27;0.00;0.00;0.62;0.00;0.00;0.62;4.23;2.10;;;19.20;24.90;;;;;;2241891;62;20632;-61
2022/01/07 03:09:13;0.00;0.00;0.62;0.00;0.00;0.62;4.17;2.10;;;19.20;25.00;;;;;;2241698;62;20371;-61
2022/01/07 03:11:57;0.00;0.00;0.62;0.00;0.00;0.62;3.00;2.23;;;19.20;25.00;;;;;;2242264;62;20454;-60
2022/01/07 03:14:42;0.00;0.00;0.62;0.00;0.00;0.62;4.60;2.47;;;19.10;25.00;;;;;;2241444;62;20503;-61
2022/01/07 03:17:26;0.00;0.00;0.62;0.00;0.00;0.62;4.00;2.70;;;19.10;24.90;;;;;;2241438;62;20366;-63
2022/01/07 03:20:16;0.00;0.00;0.62;0.00;0.00;0.62;4.30;2.17;;;19.10;24.90;;;;;;2241880;62;20363;-61
2022/01/07 03:23:01;0.00;0.00;0.62;0.00;0.00;0.62;5.97;2.50;;;19.00;24.90;;;;;;2240935;62;20446;-62
2022/01/07 03:25:47;0.00;0.00;0.62;0.00;0.00;0.62;3.37;2.20;;;19.00;24.90;;;;;;2241871;62;20358;-61
2022/01/07 03:28:31;0.00;0.00;0.62;0.00;0.00;0.62;4.03;2.23;;;19.00;24.90;;;;;;2241815;62;20491;-61
2022/01/07 03:31:16;0.00;0.00;0.62;0.00;0.00;0.62;4.60;2.53;;;19.00;24.90;;;;;;2241707;62;20418;-61
2022/01/07 03:34:00;0.00;0.00;0.62;0.00;0.00;0.62;4.57;2.90;;;19.00;25.00;;;;;;2242298;62;20423;-61
2022/01/07 03:36:45;0.00;0.00;0.62;0.00;0.00;0.62;3.80;2.80;;;18.90;24.90;;;;;;2241306;62;20591;-61
2022/01/07 03:39:30;0.00;0.00;0.62;0.00;0.00;0.62;6.77;2.47;;;18.90;24.90;;;;;;2241582;62;20663;-61
2022/01/07 03:42:16;0.00;0.00;0.62;0.00;0.00;0.62;6.47;2.30;;;18.90;24.90;;;;;;2242204;62;20430;-62
2022/01/07 03:45:00;0.00;0.00;0.62;0.00;0.00;0.62;3.23;2.03;;;18.90;25.00;;;;;;2241550;62;20405;-61
2022/01/07 03:47:46;0.00;0.00;0.62;0.00;0.00;0.62;4.67;1.97;;;18.90;25.00;;;;;;2241876;62;20363;-61
2022/01/07 03:50:31;0.00;0.00;0.62;0.00;0.00;0.62;3.40;2.03;;;18.90;25.00;;;;;;2241979;62;20371;-60
2022/01/07 03:53:15;0.00;0.00;0.62;0.00;0.00;0.62;4.10;2.43;;;18.90;25.00;;;;;;2241275;62;20742;-61
2022/01/07 03:56:00;0.00;0.00;0.62;0.00;0.00;0.62;2.53;1.93;;;18.80;24.90;;;;;;2242074;62;20427;-61
2022/01/07 03:58:46;0.00;0.00;0.62;0.00;0.00;0.62;5.87;2.20;;;18.90;25.00;;;;;;2240929;62;20383;-61
2022/01/07 04:01:31;0.00;0.00;0.62;0.00;0.00;0.62;7.63;2.43;;;18.80;25.00;;;;;;2241215;62;20370;-61
2022/01/07 04:04:15;0.00;0.00;0.62;0.00;0.00;0.62;3.70;2.17;;;18.80;24.90;;;;;;2241845;62;20386;-62
2022/01/07 04:07:00;0.00;0.00;0.62;0.00;0.00;0.62;2.87;2.07;;;18.70;24.80;;;;;;2241331;62;20781;-61
2022/01/07 04:09:44;0.00;0.00;0.62;0.00;0.00;0.62;6.60;3.23;;;18.70;24.80;;;;;;2241532;62;20394;-61
2022/01/07 04:12:29;0.00;0.00;0.62;0.00;0.00;0.62;3.30;2.03;;;18.70;24.70;;;;;;2241927;62;20391;-61
2022/01/07 04:15:16;0.00;0.00;0.62;0.00;0.00;0.62;4.70;2.50;;;18.70;24.80;;;;;;2240959;62;20382;-61
2022/01/07 04:18:01;0.00;0.00;0.62;0.00;0.00;0.62;3.33;2.10;;;18.70;24.70;;;;;;2241620;62;20444;-61
2022/01/07 04:20:46;0.00;0.00;0.62;0.00;0.00;0.62;4.70;2.20;;;18.60;24.70;;;;;;2241331;62;20358;-61
2022/01/07 04:23:30;0.00;0.00;0.62;0.00;0.00;0.62;3.33;2.10;;;18.60;24.70;;;;;;2241047;62;20402;-61
2022/01/07 04:26:15;0.00;0.00;0.62;0.00;0.00;0.62;3.40;2.17;;;18.60;24.70;;;;;;2242045;62;20362;-61
2022/01/07 04:28:59;0.00;0.00;0.62;0.00;0.00;0.62;5.00;2.57;;;18.50;24.60;;;;;;2240897;62;20414;-61
2022/01/07 04:31:45;0.00;0.00;0.62;0.00;0.00;0.62;7.20;2.57;;;18.50;24.50;;;;;;2241254;62;20391;-61
2022/01/07 04:34:30;0.00;0.00;0.62;0.00;0.00;0.62;3.70;2.43;;;18.50;24.50;;;;;;2241963;62;20391;-61
2022/01/07 04:37:14;0.00;0.00;0.62;0.00;0.00;0.62;4.20;2.00;;;18.50;24.40;;;;;;2240838;62;20806;-61
2022/01/07 04:39:59;0.00;0.00;0.62;0.00;0.00;0.62;4.00;2.13;;;18.50;24.40;;;;;;2241679;62;20387;-61
2022/01/07 04:42:44;0.00;0.00;0.62;0.00;0.00;0.62;5.50;2.30;;;18.40;24.40;;;;;;2241193;62;20389;-61
2022/01/07 04:45:29;0.00;0.00;0.62;0.00;0.00;0.62;5.10;2.73;;;18.40;24.30;;;;;;2241154;62;20690;-61
2022/01/07 04:48:15;0.00;0.00;0.62;0.00;0.00;0.62;4.53;2.77;;;18.30;24.20;;;;;;2241999;62;20378;-61
2022/01/07 04:51:00;0.00;0.00;0.62;0.00;0.00;0.62;3.90;2.50;;;18.30;24.20;;;;;;2241179;62;20487;-61
2022/01/07 04:53:44;0.00;0.00;0.62;0.00;0.00;0.62;4.73;2.70;;;18.30;24.20;;;;;;2241033;62;20421;-61
2022/01/07 04:56:29;0.00;0.00;0.62;0.00;0.00;0.62;5.07;2.90;;;18.20;24.20;;;;;;2241992;62;20370;-61
2022/01/07 04:59:13;0.00;0.00;0.62;0.00;0.00;0.62;5.73;2.63;;;18.20;24.20;;;;;;2240843;62;20366;-61
2022/01/07 05:01:58;0.00;0.00;0.62;0.00;0.00;0.62;4.07;2.90;;;18.20;24.20;;;;;;2241052;62;20415;-62
2022/01/07 05:04:44;0.00;0.00;0.62;0.00;0.00;0.62;2.97;1.90;;;18.20;24.30;;;;;;2241554;62;20418;-65
2022/01/07 05:07:29;0.00;0.00;0.62;0.00;0.00;0.62;3.10;2.00;;;18.20;24.40;;;;;;2241402;62;20398;-61
2022/01/07 05:10:15;0.00;0.00;0.62;0.00;0.00;0.62;3.90;2.50;;;18.20;24.40;;;;;;2241664;62;20371;-61
2022/01/07 05:12:59;0.00;0.00;0.62;0.00;0.00;0.62;5.53;2.50;;;18.10;24.40;;;;;;2240964;62;20276;-61
2022/01/07 05:15:44;0.00;0.00;0.62;0.00;0.00;0.62;5.00;3.03;;;18.10;24.40;;;;;;2241184;62;20386;-61
2022/01/07 05:18:28;0.00;0.00;0.62;0.00;0.00;0.62;4.27;2.30;;;18.10;24.20;;;;;;2242851;62;20367;-62
2022/01/07 05:21:14;0.00;0.00;0.62;0.00;0.00;0.62;4.27;2.37;;;18.10;24.10;;;;;;2241752;62;20393;-62
2022/01/07 05:23:59;0.00;0.00;0.62;0.00;0.00;0.62;5.60;3.00;;;18.00;24.10;;;;;;2241955;62;20398;-63
2022/01/07 05:26:43;0.00;0.00;0.62;0.00;0.00;0.62;5.53;3.00;;;18.00;24.20;;;;;;2242448;62;20366;-61
2022/01/07 05:29:28;0.00;0.00;0.62;0.00;0.00;0.62;6.70;3.67;;;18.00;24.20;;;;;;2241853;62;20385;-62
2022/01/07 05:32:13;0.00;0.00;0.62;0.00;0.00;0.62;4.10;2.70;;;17.90;24.20;;;;;;2242042;62;20358;-61
2022/01/07 05:34:58;0.00;0.00;0.62;0.00;0.00;0.62;6.90;2.60;;;17.90;24.30;;;;;;2241610;62;20382;-61
2022/01/07 05:37:44;0.00;0.00;0.62;0.00;0.00;0.62;4.37;2.63;;;17.90;24.30;;;;;;2241297;62;20362;-61
2022/01/07 05:40:29;0.00;0.00;0.62;0.00;0.00;0.62;3.70;2.47;;;17.90;24.40;;;;;;2242561;62;20374;-61
2022/01/07 05:43:13;0.00;0.00;0.62;0.00;0.00;0.62;3.50;2.43;;;17.90;24.40;;;;;;2241585;62;20406;-62
2022/01/07 05:45:58;0.00;0.00;0.62;0.00;0.00;0.62;3.60;2.67;;;17.90;24.50;;;;;;2242007;62;20370;-61
2022/01/07 05:48:43;0.00;0.00;0.62;0.00;0.00;0.62;5.10;2.50;;;17.80;24.50;;;;;;2242511;62;20488;-62
2022/01/07 05:51:28;0.00;0.00;0.62;0.00;0.00;0.62;6.50;3.17;;;17.90;24.60;;;;;;2241777;62;20367;-61
2022/01/07 05:54:14;0.00;0.00;0.62;0.00;0.00;0.62;3.43;2.50;;;17.90;24.60;;;;;;2242028;62;20383;-61
2022/01/07 05:56:59;0.00;0.00;0.62;0.00;0.00;0.62;6.17;2.93;;;17.80;24.40;;;;;;2241651;62;20730;-61
2022/01/07 05:59:43;0.00;0.00;0.62;0.00;0.00;0.62;3.57;3.00;;;17.80;24.40;;;;;;2241711;62;20358;-61
2022/01/07 06:02:28;0.00;0.00;0.62;0.00;0.00;0.62;3.67;2.80;;;17.80;24.40;;;;;;2242223;62;20597;-61
2022/01/07 06:05:12;0.00;0.00;0.62;0.00;0.00;0.62;3.30;2.50;;;17.80;24.40;;;;;;2241769;62;20381;-62
2022/01/07 06:07:57;0.00;0.00;0.62;0.00;0.00;0.62;4.00;2.33;;;17.80;24.50;;;;;;2241846;62;20366;-61
2022/01/07 06:10:43;0.00;0.00;0.62;0.00;0.00;0.62;4.90;2.93;;;17.80;24.60;;;;;;2242229;62;20378;-61
2022/01/07 06:13:28;0.00;0.00;0.62;0.00;0.00;0.62;3.00;2.00;;;17.80;24.70;;;;;;2241209;62;20742;-61
2022/01/07 06:16:13;0.00;0.00;0.62;0.00;0.00;0.62;5.03;2.40;;;17.90;24.80;;;;;;2241721;62;20714;-61
2022/01/07 06:18:57;0.00;0.00;0.62;0.00;0.00;0.62;4.93;1.87;;;17.90;24.80;;;;;;2241767;62;20374;-61
2022/01/07 06:21:42;0.00;0.00;0.62;0.00;0.00;0.62;2.93;1.80;;;17.90;24.90;;;;;;2241140;62;20387;-62
2022/01/07 06:24:26;0.00;0.00;0.62;0.00;0.00;0.62;3.73;2.23;;;17.90;24.90;;;;;;2242268;62;20473;-61
2022/01/07 06:27:12;0.00;0.00;0.62;0.00;0.00;0.62;4.03;2.70;;;18.00;25.00;;;;;;2241630;61;20394;-61
2022/01/07 06:29:57;0.00;0.00;0.62;0.00;0.00;0.62;2.80;1.90;;;18.00;25.10;;;;;;2241710;62;20370;-60
2022/01/07 06:32:42;0.00;0.00;0.62;0.00;0.00;0.62;5.90;2.00;;;18.00;25.10;;;;;;2242217;62;20389;-61
2022/01/07 06:35:27;0.00;0.00;0.62;0.00;0.00;0.62;2.00;1.60;;;18.10;25.20;;;;;;2241116;62;20386;-60
2022/01/07 06:38:11;0.00;0.00;0.62;0.00;0.00;0.62;2.77;1.80;;;18.10;25.20;;;;;;2242015;62;20770;-61
2022/01/07 06:40:56;0.00;0.00;0.62;0.00;0.00;0.62;2.67;1.70;;;18.10;25.30;;;;;;2241984;62;20445;-60
2022/01/07 06:43:43;0.00;0.00;0.62;0.00;0.00;0.62;2.40;1.70;;;18.10;25.30;;;;;;2241091;62;20610;-60
2022/01/07 06:46:28;0.00;0.00;0.62;0.00;0.00;0.62;2.60;1.70;;;18.20;25.30;;;;;;2242281;62;20730;-61
2022/01/07 06:49:15;0.00;0.00;0.62;0.00;0.00;0.62;2.17;1.53;;;18.20;25.30;;;;;;2241556;62;20362;-62
2022/01/07 06:52:00;0.00;0.00;0.62;0.00;0.00;0.62;2.70;1.70;;;18.20;25.30;;;;;;2241627;62;20367;-62
2022/01/07 06:54:44;0.00;0.00;0.62;0.00;0.00;0.62;3.93;2.37;;;18.20;25.30;;;;;;2242215;62;20794;-62
2022/01/07 06:57:29;0.00;0.00;0.62;0.00;0.00;0.62;2.43;1.93;;;18.30;25.40;;;;;;2241304;62;20480;-62
2022/01/07 07:00:16;0.00;0.00;0.62;0.00;0.00;0.62;2.70;1.40;;;18.30;25.40;;;;;;2242053;62;20361;-62
2022/01/07 07:03:00;0.00;0.00;0.62;0.00;0.00;0.62;1.77;1.40;;;18.30;25.40;;;;;;2241766;62;20597;-62
2022/01/07 07:05:45;0.00;0.00;0.62;0.00;0.00;0.62;3.47;1.70;;;18.30;25.40;;;;;;2241783;62;20603;-61
2022/01/07 07:08:30;0.00;0.00;0.62;0.00;0.00;0.62;2.87;1.70;;;18.40;25.50;;;;;;2242285;62;20770;-62
2022/01/07 07:11:14;0.00;0.00;0.62;0.00;0.00;0.62;2.47;1.50;;;18.40;25.50;;;;;;2241576;62;20403;-61
2022/01/07 07:13:59;0.00;0.00;0.62;0.00;0.00;0.62;2.20;1.23;;;18.40;25.50;;;;;;2241559;62;20386;-62
2022/01/07 07:16:45;0.00;0.00;0.62;0.00;0.00;0.62;2.80;1.50;;;18.40;25.50;;;;;;2242113;62;20402;-62
2022/01/07 07:19:29;0.00;0.00;0.62;0.00;0.00;0.62;2.77;1.67;;;18.40;25.50;;;;;;2241397;62;20369;-62
2022/01/07 07:22:14;0.00;0.00;0.62;0.00;0.00;0.62;2.30;1.57;;;18.50;25.50;;;;;;2241696;62;20430;-62
2022/01/07 07:24:59;0.00;0.00;0.62;0.00;0.00;0.62;2.20;1.60;;;18.50;25.50;;;;;;2242084;62;20430;-62
2022/01/07 07:27:44;0.00;0.00;0.62;0.00;0.00;0.62;2.33;1.33;;;18.50;25.50;;;;;;2241544;62;20374;-62
2022/01/07 07:30:38;0.00;0.00;0.62;0.00;0.00;0.62;2.40;1.60;;;18.50;25.50;;;;;;2242044;62;20597;-62
2022/01/07 07:36:27;0.00;0.00;0.62;0.00;0.00;0.62;1.90;1.20;;;18.50;25.50;;;;;;2241401;62;20367;-63
2022/01/07 07:39:15;0.00;0.00;0.62;0.00;0.00;0.62;2.20;1.40;;;18.60;25.60;;;;;;2241524;62;20394;-62
2022/01/07 07:41:59;0.00;0.00;0.62;0.00;0.00;0.62;1.77;1.30;;;18.60;25.60;;;;;;2241048;62;20432;-62
2022/01/07 07:44:48;0.00;0.00;0.62;0.00;0.00;0.62;2.37;1.30;;;18.60;25.60;;;;;;2241335;62;20434;-62
2022/01/07 07:47:34;0.00;0.00;0.62;0.00;0.00;0.62;2.83;1.50;;;18.60;25.60;;;;;;2241770;62;20483;-62
2022/01/07 07:50:20;0.00;0.00;0.62;0.00;0.00;0.62;3.00;1.57;;;18.60;25.60;;;;;;2241561;62;20416;-62
2022/01/07 07:53:04;0.00;0.00;0.62;0.00;0.00;0.62;2.90;1.20;;;18.60;25.60;;;;;;2241841;62;20366;-62
2022/01/07 07:55:53;0.00;0.00;0.62;0.00;0.00;0.62;2.73;1.70;;;18.70;25.70;;;;;;2241357;62;20390;-62
2022/01/07 07:58:38;0.00;0.00;0.62;0.00;0.00;0.62;1.97;1.43;;;18.70;25.70;;;;;;2241298;62;20398;-62
2022/01/07 08:01:24;0.00;0.00;0.62;0.00;0.00;0.62;2.60;1.33;;;18.70;25.60;;;;;;2242319;62;20403;-61
2022/01/07 08:04:12;0.00;0.00;0.62;0.00;0.00;0.62;2.07;1.60;;;18.70;25.60;;;;;;2241009;62;20430;-62
2022/01/07 08:06:57;0.00;0.00;0.62;0.00;0.00;0.62;1.70;1.20;;;18.70;25.60;;;;;;2241621;62;20750;-62
2022/01/07 08:09:43;0.00;0.00;0.62;0.00;0.00;0.62;2.73;1.60;;;18.70;25.60;;;;;;2241652;62;20369;-62
2022/01/07 08:12:50;0.00;0.00;0.62;0.00;0.00;0.62;2.23;1.50;;;18.70;25.60;;;;;;2241381;62;20554;-62
2022/01/07 08:18:38;0.00;0.00;0.62;0.00;0.00;0.62;2.20;1.33;;;18.80;25.60;;;;;;2241321;62;20370;-62
2022/01/07 08:21:25;0.00;0.00;0.62;0.00;0.00;0.62;2.30;1.40;;;18.80;25.60;;;;;;2241558;62;20363;-62
2022/01/07 08:24:11;0.00;0.00;0.62;0.00;0.00;0.62;2.30;1.30;;;18.80;25.60;;;;;;2241850;62;20434;-62
2022/01/07 08:26:56;0.00;0.00;0.62;0.00;0.00;0.62;1.70;1.13;;;18.80;25.60;;;;;;2241315;62;20448;-61
2022/01/07 08:29:42;0.00;0.00;0.62;0.00;0.00;0.62;1.70;1.10;;;18.80;25.60;;;;;;2241810;62;20378;-61
2022/01/07 08:35:49;0.00;0.00;0.62;0.00;0.00;0.62;1.50;0.90;;;18.80;25.60;;;;;;2241074;62;20385;-62
2022/01/07 08:38:39;0.00;0.00;0.62;0.00;0.00;0.62;2.20;1.57;;;18.80;25.50;;;;;;2242053;62;20769;-61
2022/01/07 08:41:43;0.00;0.00;0.62;0.00;0.00;0.62;1.67;1.10;;;18.90;25.60;;;;;;2240971;62;20405;-63
2022/01/07 08:44:29;0.00;0.00;0.62;0.00;0.00;0.62;2.23;1.27;;;18.90;25.60;;;;;;2241779;62;20762;-65
2022/01/07 08:47:19;0.00;0.00;0.62;0.00;0.00;0.62;2.07;1.30;;;18.90;25.60;;;;;;2241344;62;20357;-63
2022/01/07 08:50:06;0.00;0.00;0.62;0.00;0.00;0.62;2.00;1.20;;;18.90;25.60;;;;;;2238123;62;20366;-62
2022/01/07 08:52:56;0.00;0.00;0.62;0.00;0.00;0.62;2.73;1.73;;;18.90;25.60;;;;;;2242025;62;20436;-61
2022/01/07 08:55:41;0.00;0.00;0.62;0.00;0.00;0.62;2.00;1.40;;;18.90;25.60;;;;;;2240843;62;20477;-62
2022/01/07 08:58:28;0.00;0.00;0.62;0.00;0.00;0.62;1.77;1.30;;;18.90;25.60;;;;;;2241668;62;20401;-62
2022/01/07 09:01:14;0.00;0.00;0.62;0.00;0.00;0.62;2.60;1.20;;;18.90;25.50;;;;;;2242147;62;20385;-65
2022/01/07 09:04:09;0.00;0.00;0.62;0.00;0.00;0.62;2.33;1.30;;;18.90;25.60;;;;;;2240832;62;20442;-61
2022/01/07 09:06:56;0.00;0.00;0.62;0.00;0.00;0.62;2.63;1.20;;;19.00;25.60;;;;;;2241599;61;20369;-61
2022/01/07 09:09:41;0.00;0.00;0.62;0.00;0.00;0.62;2.23;1.50;;;19.00;25.60;;;;;;2241241;62;20407;-62
2022/01/07 09:12:25;0.00;0.00;0.62;0.00;0.00;0.62;3.20;1.33;;;19.00;25.60;;;;;;2241150;62;20577;-60
2022/01/07 09:15:13;0.00;0.00;0.62;0.00;0.00;0.62;1.50;1.03;;;19.00;25.60;;;;;;2241884;62;20382;-62
2022/01/07 09:17:59;0.00;0.00;0.62;0.00;0.00;0.62;2.40;1.13;;;19.00;25.60;;;;;;2241085;62;20367;-61
2022/01/07 09:20:56;0.00;0.00;0.62;0.00;0.00;0.62;1.50;1.03;;;19.00;25.60;;;;;;2241634;62;20394;-61
2022/01/07 09:23:45;0.00;0.00;0.62;0.00;0.00;0.62;1.47;0.90;;;19.00;25.60;;;;;;2240927;62;20466;-63
2022/01/07 09:26:31;0.00;0.00;0.62;0.00;0.00;0.62;1.67;1.20;;;19.00;25.60;;;;;;2240861;62;20681;-60
2022/01/07 09:29:30;;;;;;;;;;;;;;;;;;;;;
2022/01/07 09:32:20;0.00;0.00;0.62;0.00;0.00;0.62;1.40;0.90;;;19.00;25.60;;;;;;2240808;62;20401;-62
2022/01/07 09:35:11;0.00;0.00;0.62;0.00;0.00;0.62;1.40;0.90;;;19.00;25.60;;;;;;2240661;62;20383;-61
2022/01/07 09:38:05;0.00;0.00;0.62;0.00;0.00;0.62;1.50;1.10;;;19.00;25.60;;;;;;2241731;62;20362;-62
2022/01/07 09:40:51;0.00;0.00;0.62;0.00;0.00;0.62;1.77;1.23;;;19.00;25.60;;;;;;2240915;62;20378;-62
2022/01/07 09:43:37;0.00;0.00;0.62;0.00;0.00;0.62;1.63;1.00;;;19.00;25.60;;;;;;2240985;62;20394;-61
2022/01/07 09:46:23;0.00;0.00;0.62;0.00;0.00;0.62;1.70;1.30;;;19.00;25.60;;;;;;2240869;62;20367;-62
2022/01/07 09:49:15;0.00;0.00;0.62;0.00;0.00;0.62;1.60;1.00;;;19.10;25.60;;;;;;2241248;62;20751;-62
2022/01/07 09:52:11;0.00;0.00;0.62;0.00;0.00;0.62;1.70;0.93;;;19.10;25.70;;;;;;2241713;62;20363;-61
2022/01/07 09:54:56;0.00;0.00;0.62;0.00;0.00;0.62;1.53;0.93;;;19.10;25.70;;;;;;2241012;62;20611;-62
2022/01/07 09:57:44;0.00;0.00;0.62;0.00;0.00;0.62;1.67;1.23;;;19.10;25.60;;;;;;2241342;62;20437;-62
2022/01/07 10:00:41;0.00;0.00;0.62;0.00;0.00;0.62;1.77;0.90;;;19.10;25.70;;;;;;2241813;62;20359;-62
2022/01/07 10:03:38;0.00;0.00;0.62;0.00;0.00;0.62;1.50;1.00;;;19.10;25.60;;;;;;2241552;62;20767;-62
2022/01/07 10:06:29;0.00;0.00;0.62;0.00;0.00;0.62;1.87;0.83;;;19.10;25.70;;;;;;2242218;61;20414;-61
2022/01/07 10:09:17;0.00;0.00;0.62;0.00;0.00;0.62;1.90;1.20;;;19.10;25.70;;;;;;2241919;62;20366;-62
2022/01/07 10:12:14;0.00;0.00;0.62;0.00;0.00;0.62;2.00;1.27;;;19.10;25.70;;;;;;2242025;62;20358;-63
2022/01/07 10:15:14;0.00;0.00;0.62;0.00;0.00;0.62;1.33;0.73;;;19.10;25.60;;;;;;2242690;62;20414;-62
2022/01/07 10:18:02;0.00;0.00;0.62;0.00;0.00;0.62;1.57;0.90;;;19.10;25.60;;;;;;2241749;62;20359;-61
2022/01/07 10:20:48;0.00;0.00;0.62;0.00;0.00;0.62;1.87;1.07;;;19.10;25.60;;;;;;2242383;62;20631;-61
2022/01/07 10:23:33;0.00;0.00;0.62;0.00;0.00;0.62;1.57;1.00;;;19.20;25.70;;;;;;2241389;62;20431;-60
2022/01/07 10:26:19;0.00;0.00;0.62;0.00;0.00;0.62;1.60;1.10;;;19.10;25.60;;;;;;2241707;62;20363;-61
2022/01/07 10:29:27;0.00;0.00;0.62;0.00;0.00;0.62;2.53;1.10;;;19.20;25.70;;;;;;2242277;62;20359;-61
2022/01/07 10:32:27;0.00;0.00;0.62;0.00;0.00;0.62;2.30;0.90;;;19.20;25.70;;;;;;2241227;62;20631;-60
2022/01/07 10:35:15;0.00;0.00;0.62;0.00;0.00;0.62;1.60;1.00;;;19.20;25.70;;;;;;2241679;62;20382;-61
2022/01/07 10:38:02;0.00;0.00;0.62;0.00;0.00;0.62;1.87;0.93;;;19.20;25.70;;;;;;2241582;62;20411;-60
2022/01/07 10:40:51;0.00;0.00;0.62;0.00;0.00;0.62;1.40;0.90;;;19.20;25.70;;;;;;2241741;62;20667;-62
2022/01/07 10:43:37;0.00;0.00;0.62;0.00;0.00;0.62;1.57;0.80;;;19.20;25.70;;;;;;2241972;62;20406;-62
2022/01/07 10:46:25;0.00;0.00;0.62;0.00;0.00;0.62;1.87;1.10;;;19.20;25.70;;;;;;2241665;62;20444;-62
2022/01/07 10:49:10;0.00;0.00;0.62;0.00;0.00;0.62;1.97;1.17;;;19.20;25.70;;;;;;2241763;62;20363;-62
2022/01/07 10:51:55;0.00;0.00;0.62;0.00;0.00;0.62;1.30;0.70;;;19.20;25.70;;;;;;2242187;62;20358;-62
2022/01/07 10:54:40;0.00;0.00;0.62;0.00;0.00;0.62;1.57;0.93;;;19.20;25.70;;;;;;2241331;62;20651;-62
2022/01/07 10:57:44;0.00;0.00;0.62;0.00;0.00;0.62;1.50;0.77;;;19.30;25.80;;;;;;2241808;62;20773;-61
2022/01/07 11:00:42;0.00;0.00;0.62;0.00;0.00;0.62;1.60;0.90;;;19.20;25.70;;;;;;2241587;62;20560;-62
2022/01/07 11:03:48;;;;;;;;;;;;;;;;;;;;;
2022/01/07 11:06:35;0.00;0.00;0.62;0.00;0.00;0.62;1.93;1.30;;;19.20;25.70;;;;;;2238807;61;20379;-61
2022/01/07 11:09:23;0.00;0.00;0.62;0.00;0.00;0.62;1.57;0.90;;;19.30;25.80;;;;;;2241277;62;20405;-61
2022/01/07 11:12:17;0.00;0.00;0.62;0.00;0.00;0.62;1.30;0.80;;;19.20;25.70;;;;;;2241779;62;20363;-62